sensor_id;sensor_type;location;lat;lon;timestamp;temperature;humidity
43673;DHT22;41723;49.326;8.430;2024-02-26T00:01:33;9.70;99.90
43673;DHT22;41723;49.326;8.430;2024-02-26T00:03:59;9.70;99.90
43673;DHT22;41723;49.326;8.430;2024-02-26T00:06:25;9.60;99.90
43673;DHT22;41723;49.326;8.430;2024-02-26T00:08:50;9.70;99.90
43673;DHT22;41723;49.326;8.430;2024-02-26T00:11:16;9.70;99.90
43673;DHT22;41723;49.326;8.430;2024-02-26T00:13:42;9.60;99.90
43673;DHT22;41723;49.326;8.430;2024-02-26T00:16:07;9.60;99.90
43673;DHT22;41723;49.326;8.430;2024-02-26T00:18:33;9.70;99.90
43673;DHT22;41723;49.326;8.430;2024-02-26T00:20:59;9.60;99.90
43673;DHT22;41723;49.326;8.430;2024-02-26T00:23:24;9.70;99.90
43673;DHT22;41723;49.326;8.430;2024-02-26T00:25:50;9.60;99.90
43673;DHT22;41723;49.326;8.430;2024-02-26T00:28:15;9.70;99.90
43673;DHT22;41723;49.326;8.430;2024-02-26T00:30:41;9.70;99.90
43673;DHT22;41723;49.326;8.430;2024-02-26T00:33:06;9.60;99.90
43673;DHT22;41723;49.326;8.430;2024-02-26T00:35:32;9.60;99.90
43673;DHT22;41723;49.326;8.430;2024-02-26T00:37:57;9.60;99.90
43673;DHT22;41723;49.326;8.430;2024-02-26T00:40:24;9.60;99.90
43673;DHT22;41723;49.326;8.430;2024-02-26T00:42:49;9.60;99.90
43673;DHT22;41723;49.326;8.430;2024-02-26T00:45:15;9.60;99.90
43673;DHT22;41723;49.326;8.430;2024-02-26T00:47:42;9.60;99.90
43673;DHT22;41723;49.326;8.430;2024-02-26T00:50:12;9.60;99.90
43673;DHT22;41723;49.326;8.430;2024-02-26T00:52:38;9.60;99.90
43673;DHT22;41723;49.326;8.430;2024-02-26T00:55:03;9.60;99.90
43673;DHT22;41723;49.326;8.430;2024-02-26T00:57:29;9.60;99.90
43673;DHT22;41723;49.326;8.430;2024-02-26T00:59:55;9.70;99.90
43673;DHT22;41723;49.326;8.430;2024-02-26T01:02:22;9.60;99.90
43673;DHT22;41723;49.326;8.430;2024-02-26T01:04:47;9.60;99.90
43673;DHT22;41723;49.326;8.430;2024-02-26T01:07:13;9.60;99.90
43673;DHT22;41723;49.326;8.430;2024-02-26T01:09:39;9.70;99.90
43673;DHT22;41723;49.326;8.430;2024-02-26T01:12:04;9.60;99.90
43673;DHT22;41723;49.326;8.430;2024-02-26T01:14:30;9.60;99.90
43673;DHT22;41723;49.326;8.430;2024-02-26T01:16:55;9.60;99.90
43673;DHT22;41723;49.326;8.430;2024-02-26T01:19:21;9.60;99.90
43673;DHT22;41723;49.326;8.430;2024-02-26T01:21:46;9.60;99.90
43673;DHT22;41723;49.326;8.430;2024-02-26T01:24:12;9.60;99.90
43673;DHT22;41723;49.326;8.430;2024-02-26T01:26:38;9.60;99.90
43673;DHT22;41723;49.326;8.430;2024-02-26T01:29:04;9.60;99.90
43673;DHT22;41723;49.326;8.430;2024-02-26T01:31:30;9.50;99.90
43673;DHT22;41723;49.326;8.430;2024-02-26T01:33:55;9.50;99.90
43673;DHT22;41723;49.326;8.430;2024-02-26T01:36:21;9.50;99.90
43673;DHT22;41723;49.326;8.430;2024-02-26T01:38:46;9.60;99.90
43673;DHT22;41723;49.326;8.430;2024-02-26T01:41:13;9.50;99.90
43673;DHT22;41723;49.326;8.430;2024-02-26T01:43:38;9.50;99.90
43673;DHT22;41723;49.326;8.430;2024-02-26T01:46:04;9.40;99.90
43673;DHT22;41723;49.326;8.430;2024-02-26T01:48:30;9.40;99.90
43673;DHT22;41723;49.326;8.430;2024-02-26T01:50:55;9.40;99.90
43673;DHT22;41723;49.326;8.430;2024-02-26T01:53:21;9.40;99.90
43673;DHT22;41723;49.326;8.430;2024-02-26T01:55:47;9.40;99.90
43673;DHT22;41723;49.326;8.430;2024-02-26T01:58:13;9.50;99.90
43673;DHT22;41723;49.326;8.430;2024-02-26T02:00:39;9.50;99.90
43673;DHT22;41723;49.326;8.430;2024-02-26T02:03:04;9.40;99.90
43673;DHT22;41723;49.326;8.430;2024-02-26T02:05:30;9.50;99.90
43673;DHT22;41723;49.326;8.430;2024-02-26T02:07:56;9.50;99.90
43673;DHT22;41723;49.326;8.430;2024-02-26T02:10:22;9.50;99.90
43673;DHT22;41723;49.326;8.430;2024-02-26T02:12:48;9.50;99.90
43673;DHT22;41723;49.326;8.430;2024-02-26T02:15:14;9.50;99.90
43673;DHT22;41723;49.326;8.430;2024-02-26T02:17:40;9.30;99.90
43673;DHT22;41723;49.326;8.430;2024-02-26T02:20:09;9.30;99.90
43673;DHT22;41723;49.326;8.430;2024-02-26T02:22:35;9.20;99.90
43673;DHT22;41723;49.326;8.430;2024-02-26T02:25:00;9.20;99.90
43673;DHT22;41723;49.326;8.430;2024-02-26T02:27:27;9.10;99.90
43673;DHT22;41723;49.326;8.430;2024-02-26T02:29:53;9.10;99.90
43673;DHT22;41723;49.326;8.430;2024-02-26T02:32:18;9.10;99.90
43673;DHT22;41723;49.326;8.430;2024-02-26T02:34:44;9.10;99.90
43673;DHT22;41723;49.326;8.430;2024-02-26T02:37:11;9.00;99.90
43673;DHT22;41723;49.326;8.430;2024-02-26T02:39:36;9.00;99.90
43673;DHT22;41723;49.326;8.430;2024-02-26T02:42:02;9.00;99.90
43673;DHT22;41723;49.326;8.430;2024-02-26T02:44:27;9.00;99.90
43673;DHT22;41723;49.326;8.430;2024-02-26T02:46:53;9.00;99.90
43673;DHT22;41723;49.326;8.430;2024-02-26T02:49:19;9.00;99.90
43673;DHT22;41723;49.326;8.430;2024-02-26T02:51:44;9.00;99.90
43673;DHT22;41723;49.326;8.430;2024-02-26T02:54:10;9.00;99.90
43673;DHT22;41723;49.326;8.430;2024-02-26T02:56:35;9.00;99.90
43673;DHT22;41723;49.326;8.430;2024-02-26T02:59:01;9.00;99.90
43673;DHT22;41723;49.326;8.430;2024-02-26T03:01:27;9.00;99.90
43673;DHT22;41723;49.326;8.430;2024-02-26T03:03:53;9.00;99.90
43673;DHT22;41723;49.326;8.430;2024-02-26T03:06:18;8.90;99.90
43673;DHT22;41723;49.326;8.430;2024-02-26T03:08:46;8.90;99.90
43673;DHT22;41723;49.326;8.430;2024-02-26T03:11:15;8.90;99.90
43673;DHT22;41723;49.326;8.430;2024-02-26T03:13:41;8.90;99.90
43673;DHT22;41723;49.326;8.430;2024-02-26T03:16:07;8.90;99.90
43673;DHT22;41723;49.326;8.430;2024-02-26T03:18:32;8.80;99.90
43673;DHT22;41723;49.326;8.430;2024-02-26T03:20:58;8.70;99.90
43673;DHT22;41723;49.326;8.430;2024-02-26T03:23:23;8.80;99.90
43673;DHT22;41723;49.326;8.430;2024-02-26T03:25:49;8.70;99.90
43673;DHT22;41723;49.326;8.430;2024-02-26T03:28:15;8.70;99.90
43673;DHT22;41723;49.326;8.430;2024-02-26T03:30:40;8.60;99.90
43673;DHT22;41723;49.326;8.430;2024-02-26T03:33:06;8.70;99.90
43673;DHT22;41723;49.326;8.430;2024-02-26T03:35:32;8.70;99.90
43673;DHT22;41723;49.326;8.430;2024-02-26T03:37:57;8.80;99.90
43673;DHT22;41723;49.326;8.430;2024-02-26T03:40:23;8.80;99.90
43673;DHT22;41723;49.326;8.430;2024-02-26T03:42:49;8.70;99.90
43673;DHT22;41723;49.326;8.430;2024-02-26T03:45:15;8.70;99.90
43673;DHT22;41723;49.326;8.430;2024-02-26T03:47:40;8.80;99.90
43673;DHT22;41723;49.326;8.430;2024-02-26T03:53:41;8.90;99.90
43673;DHT22;41723;49.326;8.430;2024-02-26T03:56:07;8.90;99.90
43673;DHT22;41723;49.326;8.430;2024-02-26T03:58:32;8.90;99.90
43673;DHT22;41723;49.326;8.430;2024-02-26T04:01:01;8.90;99.90
43673;DHT22;41723;49.326;8.430;2024-02-26T04:03:27;8.80;99.90
43673;DHT22;41723;49.326;8.430;2024-02-26T04:05:52;8.80;99.90
43673;DHT22;41723;49.326;8.430;2024-02-26T04:08:18;8.80;99.90
43673;DHT22;41723;49.326;8.430;2024-02-26T04:10:43;8.90;99.90
43673;DHT22;41723;49.326;8.430;2024-02-26T04:13:09;8.90;99.90
43673;DHT22;41723;49.326;8.430;2024-02-26T04:15:35;8.90;99.90
43673;DHT22;41723;49.326;8.430;2024-02-26T04:18:00;8.90;99.90
43673;DHT22;41723;49.326;8.430;2024-02-26T04:20:26;8.90;99.90
43673;DHT22;41723;49.326;8.430;2024-02-26T04:22:51;9.00;99.90
43673;DHT22;41723;49.326;8.430;2024-02-26T04:25:18;9.00;99.90
43673;DHT22;41723;49.326;8.430;2024-02-26T04:27:43;9.00;99.90
43673;DHT22;41723;49.326;8.430;2024-02-26T04:30:09;9.10;99.90
43673;DHT22;41723;49.326;8.430;2024-02-26T04:32:35;9.00;99.90
43673;DHT22;41723;49.326;8.430;2024-02-26T04:35:01;9.10;99.90
43673;DHT22;41723;49.326;8.430;2024-02-26T04:37:27;9.00;99.90
43673;DHT22;41723;49.326;8.430;2024-02-26T04:39:59;9.00;99.90
43673;DHT22;41723;49.326;8.430;2024-02-26T04:42:25;8.90;99.90
43673;DHT22;41723;49.326;8.430;2024-02-26T04:44:51;9.00;99.90
43673;DHT22;41723;49.326;8.430;2024-02-26T04:47:16;8.90;99.90
43673;DHT22;41723;49.326;8.430;2024-02-26T04:49:42;8.90;99.90
43673;DHT22;41723;49.326;8.430;2024-02-26T04:52:07;8.90;99.90
43673;DHT22;41723;49.326;8.430;2024-02-26T04:54:33;8.90;99.90
43673;DHT22;41723;49.326;8.430;2024-02-26T04:56:59;8.90;99.90
43673;DHT22;41723;49.326;8.430;2024-02-26T04:59:24;8.90;99.90
43673;DHT22;41723;49.326;8.430;2024-02-26T05:01:50;8.80;99.90
43673;DHT22;41723;49.326;8.430;2024-02-26T05:04:18;8.90;99.90
43673;DHT22;41723;49.326;8.430;2024-02-26T05:06:43;8.90;99.90
43673;DHT22;41723;49.326;8.430;2024-02-26T05:09:11;8.90;99.90
43673;DHT22;41723;49.326;8.430;2024-02-26T05:11:37;8.80;99.90
43673;DHT22;41723;49.326;8.430;2024-02-26T05:14:03;8.90;99.90
43673;DHT22;41723;49.326;8.430;2024-02-26T05:16:28;8.80;99.90
43673;DHT22;41723;49.326;8.430;2024-02-26T05:18:55;8.80;99.90
43673;DHT22;41723;49.326;8.430;2024-02-26T05:21:21;8.80;99.90
43673;DHT22;41723;49.326;8.430;2024-02-26T05:23:46;8.70;99.90
43673;DHT22;41723;49.326;8.430;2024-02-26T05:26:18;8.80;99.90
43673;DHT22;41723;49.326;8.430;2024-02-26T05:28:44;8.80;99.90
43673;DHT22;41723;49.326;8.430;2024-02-26T05:31:12;8.80;99.90
43673;DHT22;41723;49.326;8.430;2024-02-26T05:33:37;8.80;99.90
43673;DHT22;41723;49.326;8.430;2024-02-26T05:36:03;8.90;99.90
43673;DHT22;41723;49.326;8.430;2024-02-26T05:38:30;8.70;99.90
43673;DHT22;41723;49.326;8.430;2024-02-26T05:40:57;8.60;99.90
43673;DHT22;41723;49.326;8.430;2024-02-26T05:43:27;8.70;99.90
43673;DHT22;41723;49.326;8.430;2024-02-26T05:45:52;8.70;99.90
43673;DHT22;41723;49.326;8.430;2024-02-26T05:48:18;8.70;99.90
43673;DHT22;41723;49.326;8.430;2024-02-26T05:50:47;8.80;99.90
43673;DHT22;41723;49.326;8.430;2024-02-26T05:53:13;8.70;99.90
43673;DHT22;41723;49.326;8.430;2024-02-26T05:55:38;8.70;99.90
43673;DHT22;41723;49.326;8.430;2024-02-26T05:58:04;8.70;99.90
43673;DHT22;41723;49.326;8.430;2024-02-26T06:00:30;8.70;99.90
43673;DHT22;41723;49.326;8.430;2024-02-26T06:02:55;8.70;99.90
43673;DHT22;41723;49.326;8.430;2024-02-26T06:05:21;8.70;99.90
43673;DHT22;41723;49.326;8.430;2024-02-26T06:07:46;8.70;99.90
43673;DHT22;41723;49.326;8.430;2024-02-26T06:10:12;8.60;99.90
43673;DHT22;41723;49.326;8.430;2024-02-26T06:12:39;8.60;99.90
43673;DHT22;41723;49.326;8.430;2024-02-26T06:15:05;8.50;99.90
43673;DHT22;41723;49.326;8.430;2024-02-26T06:17:31;8.40;99.90
43673;DHT22;41723;49.326;8.430;2024-02-26T06:19:57;8.40;99.90
43673;DHT22;41723;49.326;8.430;2024-02-26T06:22:24;8.40;99.90
43673;DHT22;41723;49.326;8.430;2024-02-26T06:24:50;8.40;99.90
43673;DHT22;41723;49.326;8.430;2024-02-26T06:27:16;8.30;99.90
43673;DHT22;41723;49.326;8.430;2024-02-26T06:29:41;8.40;99.90
43673;DHT22;41723;49.326;8.430;2024-02-26T06:32:07;8.40;99.90
43673;DHT22;41723;49.326;8.430;2024-02-26T06:34:32;8.50;99.90
43673;DHT22;41723;49.326;8.430;2024-02-26T06:36:58;8.50;99.90
43673;DHT22;41723;49.326;8.430;2024-02-26T06:39:23;8.50;99.90
43673;DHT22;41723;49.326;8.430;2024-02-26T06:41:49;8.50;99.90
43673;DHT22;41723;49.326;8.430;2024-02-26T06:44:15;8.40;99.90
43673;DHT22;41723;49.326;8.430;2024-02-26T06:46:41;8.40;99.90
43673;DHT22;41723;49.326;8.430;2024-02-26T06:49:06;8.50;99.90
43673;DHT22;41723;49.326;8.430;2024-02-26T06:51:32;8.60;99.90
43673;DHT22;41723;49.326;8.430;2024-02-26T06:53:57;8.60;99.90
43673;DHT22;41723;49.326;8.430;2024-02-26T06:56:23;8.60;99.90
43673;DHT22;41723;49.326;8.430;2024-02-26T06:58:48;8.60;99.90
43673;DHT22;41723;49.326;8.430;2024-02-26T07:01:14;8.70;99.90
43673;DHT22;41723;49.326;8.430;2024-02-26T07:03:40;8.70;99.90
43673;DHT22;41723;49.326;8.430;2024-02-26T07:06:05;9.00;99.90
43673;DHT22;41723;49.326;8.430;2024-02-26T07:08:32;9.20;99.90
43673;DHT22;41723;49.326;8.430;2024-02-26T07:10:57;9.20;99.90
43673;DHT22;41723;49.326;8.430;2024-02-26T07:13:23;9.40;99.90
43673;DHT22;41723;49.326;8.430;2024-02-26T07:15:49;9.50;99.90
43673;DHT22;41723;49.326;8.430;2024-02-26T07:18:14;9.50;99.90
43673;DHT22;41723;49.326;8.430;2024-02-26T07:20:40;9.60;99.90
43673;DHT22;41723;49.326;8.430;2024-02-26T07:23:05;9.80;99.90
43673;DHT22;41723;49.326;8.430;2024-02-26T07:25:32;9.80;99.90
43673;DHT22;41723;49.326;8.430;2024-02-26T07:27:57;9.80;99.90
43673;DHT22;41723;49.326;8.430;2024-02-26T07:30:23;9.80;99.90
43673;DHT22;41723;49.326;8.430;2024-02-26T07:32:50;10.00;99.90
43673;DHT22;41723;49.326;8.430;2024-02-26T07:35:15;9.80;99.90
43673;DHT22;41723;49.326;8.430;2024-02-26T07:37:42;9.50;99.90
43673;DHT22;41723;49.326;8.430;2024-02-26T07:40:08;9.40;99.90
43673;DHT22;41723;49.326;8.430;2024-02-26T07:42:34;9.30;99.90
43673;DHT22;41723;49.326;8.430;2024-02-26T07:45:00;9.20;99.90
43673;DHT22;41723;49.326;8.430;2024-02-26T07:47:25;9.20;99.90
43673;DHT22;41723;49.326;8.430;2024-02-26T07:49:51;9.20;99.90
43673;DHT22;41723;49.326;8.430;2024-02-26T07:52:17;9.10;99.90
43673;DHT22;41723;49.326;8.430;2024-02-26T07:54:42;9.00;99.90
43673;DHT22;41723;49.326;8.430;2024-02-26T07:57:08;9.00;99.90
43673;DHT22;41723;49.326;8.430;2024-02-26T07:59:33;8.90;99.90
43673;DHT22;41723;49.326;8.430;2024-02-26T08:01:59;8.90;99.90
43673;DHT22;41723;49.326;8.430;2024-02-26T08:04:26;8.90;99.90
43673;DHT22;41723;49.326;8.430;2024-02-26T08:06:52;8.80;99.90
43673;DHT22;41723;49.326;8.430;2024-02-26T08:09:17;8.80;99.90
43673;DHT22;41723;49.326;8.430;2024-02-26T08:11:43;8.70;99.90
43673;DHT22;41723;49.326;8.430;2024-02-26T08:14:08;8.80;99.90
43673;DHT22;41723;49.326;8.430;2024-02-26T08:16:34;8.80;99.90
43673;DHT22;41723;49.326;8.430;2024-02-26T08:19:00;8.90;99.90
43673;DHT22;41723;49.326;8.430;2024-02-26T08:21:25;9.00;99.90
43673;DHT22;41723;49.326;8.430;2024-02-26T08:23:51;8.90;99.90
43673;DHT22;41723;49.326;8.430;2024-02-26T08:26:16;9.00;99.90
43673;DHT22;41723;49.326;8.430;2024-02-26T08:28:42;9.10;99.90
43673;DHT22;41723;49.326;8.430;2024-02-26T08:31:07;9.10;99.90
43673;DHT22;41723;49.326;8.430;2024-02-26T08:33:33;9.10;99.90
43673;DHT22;41723;49.326;8.430;2024-02-26T08:36:04;9.20;99.90
43673;DHT22;41723;49.326;8.430;2024-02-26T08:38:29;9.10;99.90
43673;DHT22;41723;49.326;8.430;2024-02-26T08:40:55;9.10;99.90
43673;DHT22;41723;49.326;8.430;2024-02-26T08:43:20;9.10;99.90
43673;DHT22;41723;49.326;8.430;2024-02-26T08:45:46;9.20;99.90
43673;DHT22;41723;49.326;8.430;2024-02-26T08:48:12;9.10;99.90
43673;DHT22;41723;49.326;8.430;2024-02-26T08:50:39;9.10;99.90
43673;DHT22;41723;49.326;8.430;2024-02-26T08:53:04;9.20;99.90
43673;DHT22;41723;49.326;8.430;2024-02-26T08:55:31;9.30;99.90
43673;DHT22;41723;49.326;8.430;2024-02-26T08:57:56;9.30;99.90
43673;DHT22;41723;49.326;8.430;2024-02-26T09:00:22;9.30;99.90
43673;DHT22;41723;49.326;8.430;2024-02-26T09:02:47;9.30;99.90
43673;DHT22;41723;49.326;8.430;2024-02-26T09:05:14;9.40;99.90
43673;DHT22;41723;49.326;8.430;2024-02-26T09:07:39;9.30;99.90
43673;DHT22;41723;49.326;8.430;2024-02-26T09:10:05;9.30;99.90
43673;DHT22;41723;49.326;8.430;2024-02-26T09:12:31;9.40;99.90
43673;DHT22;41723;49.326;8.430;2024-02-26T09:14:57;9.40;99.90
43673;DHT22;41723;49.326;8.430;2024-02-26T09:17:23;9.40;99.90
43673;DHT22;41723;49.326;8.430;2024-02-26T09:19:48;9.50;99.90
43673;DHT22;41723;49.326;8.430;2024-02-26T09:22:14;9.50;99.90
43673;DHT22;41723;49.326;8.430;2024-02-26T09:28:15;9.50;99.90
43673;DHT22;41723;49.326;8.430;2024-02-26T09:30:45;9.60;99.90
43673;DHT22;41723;49.326;8.430;2024-02-26T09:33:11;9.60;99.90
43673;DHT22;41723;49.326;8.430;2024-02-26T09:35:37;9.70;99.90
43673;DHT22;41723;49.326;8.430;2024-02-26T09:38:02;9.80;99.90
43673;DHT22;41723;49.326;8.430;2024-02-26T09:40:28;9.90;99.90
43673;DHT22;41723;49.326;8.430;2024-02-26T09:42:59;9.90;99.90
43673;DHT22;41723;49.326;8.430;2024-02-26T09:45:25;9.90;99.90
43673;DHT22;41723;49.326;8.430;2024-02-26T09:47:52;9.90;99.90
43673;DHT22;41723;49.326;8.430;2024-02-26T09:50:20;9.90;99.90
43673;DHT22;41723;49.326;8.430;2024-02-26T09:52:48;9.90;99.90
43673;DHT22;41723;49.326;8.430;2024-02-26T09:55:14;10.00;99.90
43673;DHT22;41723;49.326;8.430;2024-02-26T09:57:42;10.10;99.90
43673;DHT22;41723;49.326;8.430;2024-02-26T10:00:10;10.10;99.90
43673;DHT22;41723;49.326;8.430;2024-02-26T10:02:35;10.20;99.90
43673;DHT22;41723;49.326;8.430;2024-02-26T10:05:02;10.30;99.90
43673;DHT22;41723;49.326;8.430;2024-02-26T10:07:30;10.30;99.90
43673;DHT22;41723;49.326;8.430;2024-02-26T10:09:56;10.40;99.90
43673;DHT22;41723;49.326;8.430;2024-02-26T10:12:21;10.40;99.90
43673;DHT22;41723;49.326;8.430;2024-02-26T10:14:48;10.50;99.90
43673;DHT22;41723;49.326;8.430;2024-02-26T10:17:14;10.50;99.90
43673;DHT22;41723;49.326;8.430;2024-02-26T10:19:39;10.40;99.90
43673;DHT22;41723;49.326;8.430;2024-02-26T10:22:05;10.40;99.90
43673;DHT22;41723;49.326;8.430;2024-02-26T10:24:30;10.40;99.90
43673;DHT22;41723;49.326;8.430;2024-02-26T10:26:56;10.50;99.90
43673;DHT22;41723;49.326;8.430;2024-02-26T10:29:23;10.50;99.90
43673;DHT22;41723;49.326;8.430;2024-02-26T10:31:50;10.50;99.90
43673;DHT22;41723;49.326;8.430;2024-02-26T10:34:15;10.60;99.90
43673;DHT22;41723;49.326;8.430;2024-02-26T10:36:41;10.70;99.90
43673;DHT22;41723;49.326;8.430;2024-02-26T10:39:07;10.80;99.90
43673;DHT22;41723;49.326;8.430;2024-02-26T10:41:32;10.90;99.90
43673;DHT22;41723;49.326;8.430;2024-02-26T10:43:58;10.90;99.90
43673;DHT22;41723;49.326;8.430;2024-02-26T10:46:25;11.00;99.90
43673;DHT22;41723;49.326;8.430;2024-02-26T10:48:50;11.00;99.90
43673;DHT22;41723;49.326;8.430;2024-02-26T10:51:17;11.00;99.90
43673;DHT22;41723;49.326;8.430;2024-02-26T10:53:45;11.00;99.90
43673;DHT22;41723;49.326;8.430;2024-02-26T10:56:11;11.00;99.90
43673;DHT22;41723;49.326;8.430;2024-02-26T10:58:37;11.10;99.90
43673;DHT22;41723;49.326;8.430;2024-02-26T11:01:02;11.30;99.90
43673;DHT22;41723;49.326;8.430;2024-02-26T11:03:28;11.20;99.90
43673;DHT22;41723;49.326;8.430;2024-02-26T11:05:57;11.20;99.90
43673;DHT22;41723;49.326;8.430;2024-02-26T11:08:23;11.20;99.90
43673;DHT22;41723;49.326;8.430;2024-02-26T11:10:50;11.10;99.90
43673;DHT22;41723;49.326;8.430;2024-02-26T11:13:18;11.10;99.90
43673;DHT22;41723;49.326;8.430;2024-02-26T11:15:46;11.10;99.90
43673;DHT22;41723;49.326;8.430;2024-02-26T11:18:13;11.10;99.90
43673;DHT22;41723;49.326;8.430;2024-02-26T11:20:38;11.10;99.90
43673;DHT22;41723;49.326;8.430;2024-02-26T11:23:05;11.10;99.90
43673;DHT22;41723;49.326;8.430;2024-02-26T11:25:32;11.10;99.90
43673;DHT22;41723;49.326;8.430;2024-02-26T11:28:01;11.20;99.90
43673;DHT22;41723;49.326;8.430;2024-02-26T11:30:30;11.20;99.90
43673;DHT22;41723;49.326;8.430;2024-02-26T11:32:57;11.10;99.90
43673;DHT22;41723;49.326;8.430;2024-02-26T11:35:23;11.20;99.90
43673;DHT22;41723;49.326;8.430;2024-02-26T11:37:56;11.20;99.90
43673;DHT22;41723;49.326;8.430;2024-02-26T11:40:23;11.30;99.90
43673;DHT22;41723;49.326;8.430;2024-02-26T11:42:49;11.30;99.90
43673;DHT22;41723;49.326;8.430;2024-02-26T11:48:00;11.50;99.90
43673;DHT22;41723;49.326;8.430;2024-02-26T11:50:34;11.60;99.90
43673;DHT22;41723;49.326;8.430;2024-02-26T11:55:44;11.80;99.90
43673;DHT22;41723;49.326;8.430;2024-02-26T11:58:09;11.90;99.90
43673;DHT22;41723;49.326;8.430;2024-02-26T12:00:35;12.00;99.90
43673;DHT22;41723;49.326;8.430;2024-02-26T12:03:01;11.90;99.90
43673;DHT22;41723;49.326;8.430;2024-02-26T12:05:32;12.10;99.90
43673;DHT22;41723;49.326;8.430;2024-02-26T12:08:05;12.30;99.90
43673;DHT22;41723;49.326;8.430;2024-02-26T12:15:36;12.50;99.90
43673;DHT22;41723;49.326;8.430;2024-02-26T12:18:02;12.60;99.90
43673;DHT22;41723;49.326;8.430;2024-02-26T12:20:28;12.50;99.90
43673;DHT22;41723;49.326;8.430;2024-02-26T12:22:54;12.70;99.90
43673;DHT22;41723;49.326;8.430;2024-02-26T12:25:22;12.50;99.90
43673;DHT22;41723;49.326;8.430;2024-02-26T12:27:48;12.40;99.90
43673;DHT22;41723;49.326;8.430;2024-02-26T12:30:13;12.50;99.90
43673;DHT22;41723;49.326;8.430;2024-02-26T12:32:39;12.90;99.90
43673;DHT22;41723;49.326;8.430;2024-02-26T12:35:05;13.20;99.90
43673;DHT22;41723;49.326;8.430;2024-02-26T12:37:31;13.60;99.90
43673;DHT22;41723;49.326;8.430;2024-02-26T12:39:57;14.00;99.90
43673;DHT22;41723;49.326;8.430;2024-02-26T12:42:24;13.80;99.90
43673;DHT22;41723;49.326;8.430;2024-02-26T12:44:51;13.90;99.90
43673;DHT22;41723;49.326;8.430;2024-02-26T12:47:18;13.90;99.90
43673;DHT22;41723;49.326;8.430;2024-02-26T12:49:46;13.70;99.90
43673;DHT22;41723;49.326;8.430;2024-02-26T12:52:12;14.00;99.90
43673;DHT22;41723;49.326;8.430;2024-02-26T12:54:38;14.00;99.90
43673;DHT22;41723;49.326;8.430;2024-02-26T12:57:04;13.90;99.90
43673;DHT22;41723;49.326;8.430;2024-02-26T12:59:32;14.00;99.90
43673;DHT22;41723;49.326;8.430;2024-02-26T13:01:58;14.20;99.90
43673;DHT22;41723;49.326;8.430;2024-02-26T13:04:25;14.30;99.90
43673;DHT22;41723;49.326;8.430;2024-02-26T13:06:51;14.40;99.90
43673;DHT22;41723;49.326;8.430;2024-02-26T13:09:17;14.50;99.90
43673;DHT22;41723;49.326;8.430;2024-02-26T13:11:44;14.60;99.90
43673;DHT22;41723;49.326;8.430;2024-02-26T13:14:19;14.70;99.90
43673;DHT22;41723;49.326;8.430;2024-02-26T13:16:54;14.80;99.90
43673;DHT22;41723;49.326;8.430;2024-02-26T13:19:19;14.70;99.90
43673;DHT22;41723;49.326;8.430;2024-02-26T13:21:45;14.60;99.90
43673;DHT22;41723;49.326;8.430;2024-02-26T13:24:12;14.50;99.90
43673;DHT22;41723;49.326;8.430;2024-02-26T13:26:38;14.40;99.90
43673;DHT22;41723;49.326;8.430;2024-02-26T13:29:03;14.40;99.90
43673;DHT22;41723;49.326;8.430;2024-02-26T13:31:29;14.30;99.90
43673;DHT22;41723;49.326;8.430;2024-02-26T13:33:55;14.20;99.90
43673;DHT22;41723;49.326;8.430;2024-02-26T13:36:21;14.20;99.90
43673;DHT22;41723;49.326;8.430;2024-02-26T13:38:54;14.30;99.90
43673;DHT22;41723;49.326;8.430;2024-02-26T13:41:20;14.20;99.90
43673;DHT22;41723;49.326;8.430;2024-02-26T13:43:47;14.00;99.90
43673;DHT22;41723;49.326;8.430;2024-02-26T13:46:13;13.90;99.90
43673;DHT22;41723;49.326;8.430;2024-02-26T13:48:40;13.90;99.90
43673;DHT22;41723;49.326;8.430;2024-02-26T13:51:07;14.10;99.90
43673;DHT22;41723;49.326;8.430;2024-02-26T13:53:33;14.20;99.90
43673;DHT22;41723;49.326;8.430;2024-02-26T13:55:58;14.30;99.90
43673;DHT22;41723;49.326;8.430;2024-02-26T13:58:26;14.40;99.90
43673;DHT22;41723;49.326;8.430;2024-02-26T14:00:53;14.30;99.30
43673;DHT22;41723;49.326;8.430;2024-02-26T14:03:19;14.10;99.70
43673;DHT22;41723;49.326;8.430;2024-02-26T14:05:45;13.70;99.90
43673;DHT22;41723;49.326;8.430;2024-02-26T14:08:11;13.50;99.90
43673;DHT22;41723;49.326;8.430;2024-02-26T14:10:36;13.50;99.90
43673;DHT22;41723;49.326;8.430;2024-02-26T14:13:03;13.50;99.90
43673;DHT22;41723;49.326;8.430;2024-02-26T14:15:30;13.40;99.90
43673;DHT22;41723;49.326;8.430;2024-02-26T14:17:55;13.50;99.90
43673;DHT22;41723;49.326;8.430;2024-02-26T14:20:22;13.60;99.90
43673;DHT22;41723;49.326;8.430;2024-02-26T14:22:48;13.70;99.90
43673;DHT22;41723;49.326;8.430;2024-02-26T14:25:14;13.80;99.90
43673;DHT22;41723;49.326;8.430;2024-02-26T14:27:39;13.90;99.70
43673;DHT22;41723;49.326;8.430;2024-02-26T14:30:05;14.10;99.90
43673;DHT22;41723;49.326;8.430;2024-02-26T14:32:31;14.10;98.90
43673;DHT22;41723;49.326;8.430;2024-02-26T14:35:00;14.00;99.70
43673;DHT22;41723;49.326;8.430;2024-02-26T14:37:26;14.00;99.30
43673;DHT22;41723;49.326;8.430;2024-02-26T14:39:51;14.00;99.50
43673;DHT22;41723;49.326;8.430;2024-02-26T14:42:18;14.00;99.10
43673;DHT22;41723;49.326;8.430;2024-02-26T14:44:44;13.90;99.40
43673;DHT22;41723;49.326;8.430;2024-02-26T14:47:09;14.00;99.40
43673;DHT22;41723;49.326;8.430;2024-02-26T14:49:35;14.10;99.70
43673;DHT22;41723;49.326;8.430;2024-02-26T14:52:00;14.20;99.20
43673;DHT22;41723;49.326;8.430;2024-02-26T14:54:28;14.10;98.90
43673;DHT22;41723;49.326;8.430;2024-02-26T14:56:58;14.00;98.70
43673;DHT22;41723;49.326;8.430;2024-02-26T14:59:23;14.00;98.80
43673;DHT22;41723;49.326;8.430;2024-02-26T15:01:49;14.00;99.40
43673;DHT22;41723;49.326;8.430;2024-02-26T15:04:14;13.90;98.90
43673;DHT22;41723;49.326;8.430;2024-02-26T15:06:40;13.90;99.70
43673;DHT22;41723;49.326;8.430;2024-02-26T15:09:06;13.80;99.30
43673;DHT22;41723;49.326;8.430;2024-02-26T15:11:32;13.80;99.90
43673;DHT22;41723;49.326;8.430;2024-02-26T15:13:57;13.70;99.90
43673;DHT22;41723;49.326;8.430;2024-02-26T15:16:23;13.70;99.90
43673;DHT22;41723;49.326;8.430;2024-02-26T15:18:49;13.70;99.90
43673;DHT22;41723;49.326;8.430;2024-02-26T15:21:14;13.70;99.90
43673;DHT22;41723;49.326;8.430;2024-02-26T15:23:42;13.80;99.90
43673;DHT22;41723;49.326;8.430;2024-02-26T15:26:09;13.70;99.50
43673;DHT22;41723;49.326;8.430;2024-02-26T15:28:36;13.70;99.30
43673;DHT22;41723;49.326;8.430;2024-02-26T15:31:01;13.70;99.10
43673;DHT22;41723;49.326;8.430;2024-02-26T15:33:27;13.60;99.90
43673;DHT22;41723;49.326;8.430;2024-02-26T15:35:53;13.70;99.40
43673;DHT22;41723;49.326;8.430;2024-02-26T15:38:19;13.60;99.00
43673;DHT22;41723;49.326;8.430;2024-02-26T15:40:44;13.70;99.90
43673;DHT22;41723;49.326;8.430;2024-02-26T15:43:12;13.70;99.30
43673;DHT22;41723;49.326;8.430;2024-02-26T15:45:37;13.50;99.90
43673;DHT22;41723;49.326;8.430;2024-02-26T15:48:03;13.50;99.40
43673;DHT22;41723;49.326;8.430;2024-02-26T15:50:29;13.40;99.60